Time;durP1;ratioP1;P1;durP2;ratioP2;P2;SDS_P1;SDS_P2;PMS_P1;PMS_P2;Temp;Humidity;BMP_temperature;BMP_pressure;BME280_temperature;BME280_humidity;BME280_pressure;Samples;Min_cycle;Max_cycle;Signal;HPM_P1;HPM_P2
2021/08/02 00:00:17;;;;;;;;;2.75;2.75;;;;;24.92;42.01;100562.63;4961485;28;45472;-89
2021/08/02 00:02:50;;;;;;;;;2.50;2.00;;;;;24.99;41.82;100569.38;4944178;28;45286;-90
2021/08/02 00:05:17;;;;;;;;;2.00;2.00;;;;;24.93;41.58;100559.00;4943855;28;45519;-89
2021/08/02 00:07:42;;;;;;;;;3.25;2.00;;;;;24.91;42.10;100560.91;4960251;28;45453;-89
2021/08/02 00:10:12;;;;;;;;;3.25;2.75;;;;;24.87;42.15;100559.34;4927877;28;45550;-90
2021/08/02 00:12:55;;;;;;;;;2.25;1.75;;;;;24.88;41.92;100553.06;4944543;28;45278;-90
2021/08/02 00:15:21;;;;;;;;;3.25;3.25;;;;;24.83;42.58;100539.97;4944525;28;45263;-89
2021/08/02 00:17:49;;;;;;;;;4.25;4.00;;;;;24.83;42.29;100544.44;4960031;28;45234;-90
2021/08/02 00:20:24;;;;;;;;;3.50;3.50;;;;;24.87;42.01;100559.34;4944033;28;45531;-89
2021/08/02 00:22:49;;;;;;;;;3.00;3.00;;;;;24.80;42.11;100556.16;4944935;28;45411;-89
2021/08/02 00:25:15;;;;;;;;;2.50;2.50;;;;;24.85;42.47;100564.78;4943444;28;51065;-89
2021/08/02 00:27:44;;;;;;;;;3.00;3.00;;;;;24.80;42.72;100556.16;4943398;28;46156;-89
2021/08/02 00:30:12;;;;;;;;;3.50;2.75;;;;;24.83;42.31;100555.97;4957831;28;45213;-89
2021/08/02 00:32:38;;;;;;;;;2.50;2.25;;;;;24.92;42.17;100562.63;4967684;28;45309;-89
2021/08/02 00:35:04;;;;;;;;;3.50;3.00;;;;;24.83;42.47;100552.44;4959614;28;45306;-89
2021/08/02 00:37:32;;;;;;;;;4.00;2.75;;;;;24.94;42.16;100574.97;4969382;28;45535;-89
2021/08/02 00:40:04;;;;;;;;;5.00;3.25;;;;;24.91;42.33;100561.78;4942227;28;45433;-90
2021/08/02 00:42:39;;;;;;;;;4.00;4.00;;;;;24.98;42.36;100571.19;4933584;28;45551;-90
2021/08/02 00:45:08;;;;;;;;;2.75;2.75;;;;;24.99;42.45;100559.56;4940125;28;45550;-90
2021/08/02 00:47:53;;;;;;;;;3.00;3.00;;;;;25.04;42.44;100573.56;4955469;28;45387;-91
2021/08/02 00:50:26;;;;;;;;;4.25;4.00;;;;;24.94;42.36;100558.97;4960263;28;45464;-90
2021/08/02 00:53:20;;;;;;;;;2.50;2.50;;;;;24.93;42.27;100556.34;4940542;28;45334;-89
2021/08/02 00:55:49;;;;;;;;;3.25;1.25;;;;;24.94;42.42;100569.63;4942147;28;45418;-89
2021/08/02 00:58:18;;;;;;;;;3.00;3.00;;;;;24.78;42.42;100545.56;4959270;28;48317;-89
2021/08/02 01:00:44;;;;;;;;;3.00;3.00;;;;;24.82;42.64;100556.91;4943654;28;45512;-89
2021/08/02 01:03:13;;;;;;;;;3.00;3.00;;;;;24.89;42.78;100563.66;4927617;28;45295;-90
2021/08/02 01:05:40;;;;;;;;;4.00;4.00;;;;;24.90;42.18;100562.72;4927946;28;45254;-89
2021/08/02 01:08:13;;;;;;;;;2.25;2.25;;;;;24.90;42.24;100561.84;4928278;28;48142;-89
2021/08/02 01:10:46;;;;;;;;;2.75;2.25;;;;;24.86;42.21;100555.84;4947297;28;45706;-90
2021/08/02 01:13:12;;;;;;;;;2.75;2.75;;;;;24.88;42.72;100561.09;4930159;28;45480;-90
2021/08/02 01:15:47;;;;;;;;;4.00;4.00;;;;;24.79;42.43;100549.09;4962390;28;45347;-90
2021/08/02 01:18:13;;;;;;;;;5.00;4.00;;;;;24.79;42.62;100554.41;4931176;28;47151;-90
2021/08/02 01:20:45;;;;;;;;;3.00;3.00;;;;;24.76;42.87;100549.25;4946530;28;45359;-90
2021/08/02 01:23:11;;;;;;;;;3.50;3.50;;;;;24.74;42.33;100551.97;4946305;28;45468;-89
2021/08/02 01:25:36;;;;;;;;;5.00;3.50;;;;;24.81;42.82;100568.53;4917911;28;45355;-90
2021/08/02 01:28:13;;;;;;;;;6.75;5.50;;;;;24.75;42.93;100569.72;4959081;28;48479;-88
2021/08/02 01:30:45;;;;;;;;;4.00;4.00;;;;;24.65;42.88;100555.13;4962317;28;45349;-88
2021/08/02 01:33:10;;;;;;;;;3.00;3.00;;;;;24.72;42.91;100571.69;4946956;28;45577;-88
2021/08/02 01:35:36;;;;;;;;;4.25;3.25;;;;;24.67;42.98;100566.63;4943197;28;45341;-88
2021/08/02 01:38:02;;;;;;;;;4.75;3.00;;;;;24.67;42.85;100565.72;4939629;28;48309;-88
2021/08/02 01:40:28;;;;;;;;;3.25;3.25;;;;;24.67;43.33;100566.63;4944120;28;45436;-88
2021/08/02 01:42:53;;;;;;;;;4.00;3.25;;;;;24.65;43.21;100563.13;4942634;28;45282;-88
2021/08/02 01:45:18;;;;;;;;;4.00;3.00;;;;;24.62;43.25;100552.63;4946171;28;45369;-89
2021/08/02 01:48:11;;;;;;;;;4.00;4.00;;;;;24.72;43.16;100577.91;4945875;28;48062;-90
2021/08/02 01:51:08;;;;;;;;;4.50;2.50;;;;;24.73;43.01;100570.75;4963420;28;45467;-89
2021/08/02 01:53:43;;;;;;;;;3.75;3.75;;;;;24.68;43.43;100557.66;4949512;28;45380;-89
2021/08/02 01:56:22;;;;;;;;;3.00;3.00;;;;;24.60;43.44;100551.00;4946098;28;45621;-90
2021/08/02 01:59:04;;;;;;;;;3.00;3.00;;;;;24.72;43.22;100572.56;4961292;28;47188;-90
2021/08/02 02:01:30;;;;;;;;;3.00;3.00;;;;;24.70;42.96;100570.91;4964175;28;45954;-90
2021/08/02 02:03:57;;;;;;;;;3.00;3.00;;;;;24.66;43.83;100575.53;4957537;28;45374;-90
2021/08/02 02:06:26;;;;;;;;;3.00;3.00;;;;;24.69;43.62;100575.41;4946187;28;45611;-89
2021/08/02 02:08:51;;;;;;;;;4.25;4.25;;;;;24.66;43.35;100570.19;4960885;28;47033;-90
2021/08/02 02:11:16;;;;;;;;;5.00;5.00;;;;;24.56;43.47;100558.28;4952826;28;45353;-89
2021/08/02 02:13:44;;;;;;;;;4.00;3.00;;;;;24.63;43.50;100570.38;4941760;28;45945;-91
2021/08/02 02:16:09;;;;;;;;;2.75;2.75;;;;;24.57;43.40;100554.66;4945780;28;45499;-91
2021/08/02 02:18:37;;;;;;;;;2.00;2.00;;;;;24.61;43.29;100563.38;4929370;28;47985;-90
2021/08/02 02:21:03;;;;;;;;;3.00;3.00;;;;;24.61;43.53;100561.59;4945445;28;45466;-91
2021/08/02 02:23:28;;;;;;;;;3.00;3.00;;;;;24.68;43.54;100563.00;4945543;28;45286;-90
2021/08/02 02:25:54;;;;;;;;;4.75;4.50;;;;;24.58;43.42;100544.84;4929616;28;45517;-91
2021/08/02 02:28:19;;;;;;;;;3.00;3.00;;;;;24.72;43.45;100575.22;4944901;28;48147;-90
2021/08/02 02:30:45;;;;;;;;;3.00;2.25;;;;;24.73;43.32;100566.28;4926005;28;46067;-89
2021/08/02 02:33:13;;;;;;;;;3.00;3.00;;;;;24.69;43.50;100558.53;4942147;28;45342;-90
2021/08/02 02:35:42;;;;;;;;;5.00;3.50;;;;;24.67;43.49;100553.28;4962919;28;45288;-90
2021/08/02 02:38:11;;;;;;;;;3.00;3.00;;;;;24.68;43.29;100565.66;4929774;28;47650;-90
2021/08/02 02:40:37;;;;;;;;;3.50;3.50;;;;;24.63;43.44;100557.03;4945383;28;45427;-90
2021/08/02 02:43:03;;;;;;;;;2.75;2.00;;;;;24.62;43.66;100554.44;4928976;28;45486;-90
2021/08/02 02:45:29;;;;;;;;;4.00;4.00;;;;;24.68;43.76;100565.66;4945256;28;45322;-90
2021/08/02 02:47:54;;;;;;;;;4.75;4.50;;;;;24.66;43.15;100562.19;4925571;28;46567;-90
2021/08/02 02:50:20;;;;;;;;;3.25;3.25;;;;;24.62;43.49;100562.44;4920304;28;45859;-90
2021/08/02 02:52:45;;;;;;;;;3.00;3.00;;;;;24.67;43.57;100569.28;4929000;28;45226;-90
2021/08/02 02:55:11;;;;;;;;;3.00;3.00;;;;;24.63;43.85;100567.69;4945104;28;45255;-90
2021/08/02 02:57:38;;;;;;;;;5.00;3.25;;;;;24.60;44.01;100559.88;4944376;28;51834;-90
2021/08/02 03:00:06;;;;;;;;;3.50;3.50;;;;;24.58;43.39;100564.38;4961165;28;45267;-90
2021/08/02 03:02:31;;;;;;;;;3.00;3.00;;;;;24.53;43.54;100563.78;4961114;28;45455;-89
2021/08/02 03:04:57;;;;;;;;;5.25;3.00;;;;;24.53;43.98;100561.13;4957953;28;45491;-90
2021/08/02 03:07:22;;;;;;;;;3.00;3.00;;;;;24.53;44.21;100551.31;4942360;28;47064;-90
2021/08/02 03:09:48;;;;;;;;;4.00;4.00;;;;;24.51;43.42;100561.19;4953686;28;45436;-90
2021/08/02 03:12:13;;;;;;;;;4.75;3.25;;;;;24.49;43.95;100567.53;4944967;28;45601;-90
2021/08/02 03:14:39;;;;;;;;;4.00;3.00;;;;;24.49;43.68;100562.19;4944520;28;45702;-90
2021/08/02 03:17:06;;;;;;;;;4.75;3.25;;;;;24.45;44.29;100565.97;4976925;28;47429;-90
2021/08/02 03:19:31;;;;;;;;;3.75;3.75;;;;;24.42;44.18;100563.47;4944944;28;45300;-89
2021/08/02 03:21:57;;;;;;;;;3.00;3.00;;;;;24.50;43.89;100586.16;4959850;28;45262;-90
2021/08/02 03:24:35;;;;;;;;;4.25;3.00;;;;;24.51;43.90;100581.69;4932500;28;45304;-90
2021/08/02 03:27:34;;;;;;;;;4.25;3.75;;;;;24.49;43.68;100572.88;4940213;28;45632;-90
2021/08/02 03:30:01;;;;;;;;;3.00;3.00;;;;;24.53;44.05;100590.47;4940529;28;45364;-91
2021/08/02 03:32:27;;;;;;;;;2.50;2.00;;;;;24.48;43.95;100581.81;4961716;28;45448;-90
2021/08/02 03:34:59;;;;;;;;;3.00;3.00;;;;;24.52;44.15;100588.75;4929152;28;45322;-92
2021/08/02 03:37:24;;;;;;;;;6.00;3.00;;;;;24.47;44.10;100583.63;4955719;28;45370;-89
2021/08/02 03:39:50;;;;;;;;;3.00;3.00;;;;;24.40;44.26;100573.34;4950678;28;45410;-91
2021/08/02 03:42:15;;;;;;;;;6.50;3.00;;;;;24.47;44.03;100580.09;4953617;28;45245;-91
2021/08/02 03:44:41;;;;;;;;;5.50;5.00;;;;;24.49;43.82;100587.06;4946015;28;45599;-90
2021/08/02 03:47:06;;;;;;;;;4.75;3.50;;;;;24.52;44.13;100584.28;4930384;28;47414;-88
2021/08/02 03:49:32;;;;;;;;;3.00;2.25;;;;;24.55;43.93;100599.25;4942687;28;45407;-90
2021/08/02 03:51:58;;;;;;;;;3.00;3.00;;;;;24.52;43.77;100602.09;4950381;28;45229;-90
2021/08/02 03:54:28;;;;;;;;;4.00;3.00;;;;;24.49;43.99;100597.75;4923698;28;45514;-90
2021/08/02 03:56:54;;;;;;;;;3.00;3.00;;;;;24.41;43.84;100589.28;4939521;28;47331;-91
2021/08/02 03:59:19;;;;;;;;;3.00;3.00;;;;;24.48;44.24;100601.34;4978867;28;45354;-91
2021/08/02 04:01:45;;;;;;;;;3.25;3.25;;;;;24.41;44.25;100591.97;4963146;28;45266;-90
2021/08/02 04:04:11;;;;;;;;;3.00;3.00;;;;;24.45;43.92;100592.66;4962350;28;45610;-90
2021/08/02 04:06:37;;;;;;;;;5.00;4.00;;;;;24.45;43.97;100601.53;4961965;28;46190;-90
2021/08/02 04:09:04;;;;;;;;;3.25;3.25;;;;;24.45;44.21;100608.66;4978108;28;45281;-89
2021/08/02 04:11:29;;;;;;;;;2.50;2.50;;;;;24.41;43.97;100607.97;4961682;28;45551;-89
2021/08/02 04:13:55;;;;;;;;;3.25;3.25;;;;;24.45;44.03;100616.66;4960849;28;45538;-91
2021/08/02 04:16:20;;;;;;;;;2.75;2.75;;;;;24.41;44.18;100621.31;4963186;28;46988;-91
2021/08/02 04:18:46;;;;;;;;;4.75;3.75;;;;;24.35;44.51;100618.06;4928948;28;45350;-89
2021/08/02 04:21:11;;;;;;;;;3.50;3.50;;;;;24.34;44.39;100619.03;4934487;28;45579;-89
2021/08/02 04:23:37;;;;;;;;;5.50;4.00;;;;;24.34;44.38;100632.34;4955629;28;45350;-90
2021/08/02 04:26:02;;;;;;;;;4.00;3.75;;;;;24.34;44.57;100635.88;4936175;28;46824;-89
2021/08/02 04:28:27;;;;;;;;;5.75;4.75;;;;;24.37;44.56;100635.72;4959917;28;45265;-91
2021/08/02 04:30:53;;;;;;;;;3.50;3.50;;;;;24.22;44.45;100621.28;4941579;28;45593;-92
2021/08/02 04:33:18;;;;;;;;;2.50;2.50;;;;;24.31;44.26;100643.13;4958690;28;45924;-90
2021/08/02 04:35:46;;;;;;;;;3.50;3.50;;;;;24.27;44.40;100630.88;4925772;28;46337;-89
2021/08/02 04:38:11;;;;;;;;;2.75;2.75;;;;;24.23;44.36;100624.81;4943968;28;45426;-90
2021/08/02 04:40:37;;;;;;;;;5.00;4.00;;;;;24.34;44.75;100633.22;4943842;28;45361;-90
2021/08/02 04:43:03;;;;;;;;;4.00;4.00;;;;;24.20;44.52;100615.19;4944451;28;45639;-89
2021/08/02 04:45:28;;;;;;;;;6.00;5.00;;;;;24.24;44.45;100619.44;4963232;28;46249;-91
2021/08/02 04:47:54;;;;;;;;;4.50;4.50;;;;;24.26;44.64;100627.38;4963239;28;45261;-90
2021/08/02 04:50:19;;;;;;;;;3.00;3.00;;;;;24.22;44.72;100613.28;4963367;28;45398;-92
2021/08/02 04:52:47;;;;;;;;;3.25;3.25;;;;;24.31;44.86;100621.78;4963015;28;45523;-90
2021/08/02 04:55:12;;;;;;;;;3.75;3.75;;;;;24.18;44.32;100616.22;4963020;28;47024;-90
2021/08/02 04:57:41;;;;;;;;;3.00;3.00;;;;;24.18;44.89;100622.41;4947112;28;45387;-90
2021/08/02 05:00:06;;;;;;;;;5.00;4.25;;;;;24.16;44.61;100616.28;4931328;28;53482;-91
2021/08/02 05:02:32;;;;;;;;;4.00;4.00;;;;;24.18;44.59;100627.72;4963483;28;45556;-91
2021/08/02 05:04:57;;;;;;;;;4.00;4.00;;;;;24.17;44.91;100623.34;4946842;28;48112;-90
2021/08/02 05:07:23;;;;;;;;;3.00;3.00;;;;;24.20;44.80;100625.00;4962639;28;45991;-90
2021/08/02 05:09:48;;;;;;;;;3.50;3.00;;;;;24.27;45.18;100633.56;4931909;28;45180;-93
2021/08/02 05:12:14;;;;;;;;;5.00;4.00;;;;;24.27;45.04;100628.22;4947742;28;45829;-92
2021/08/02 05:14:39;;;;;;;;;5.50;4.25;;;;;24.37;45.39;100640.19;4938400;28;46003;-86
2021/08/02 05:17:04;;;;;;;;;5.75;5.75;;;;;24.42;45.71;100640.84;4945902;28;57083;-87
2021/08/02 05:19:30;;;;;;;;;3.75;3.75;;;;;24.50;46.53;100634.19;4938408;28;45439;-92
2021/08/02 05:21:55;;;;;;;;;4.50;3.50;;;;;24.48;45.74;100621.84;4930637;28;45965;-85
2021/08/02 05:24:21;;;;;;;;;4.00;4.00;;;;;24.62;45.83;100634.50;4930274;28;45997;-82
2021/08/02 05:26:46;;;;;;;;;4.50;3.00;;;;;24.65;46.08;100632.53;4929467;28;64952;-90
2021/08/02 05:29:11;;;;;;;;;2.00;2.00;;;;;24.74;45.79;100641.88;4943295;28;45545;-93
2021/08/02 05:31:37;;;;;;;;;2.00;2.00;;;;;24.76;45.79;100637.34;4924225;28;45555;-85
2021/08/02 05:34:02;;;;;;;;;4.25;4.25;;;;;24.78;45.24;100638.13;4949904;28;47271;-85
2021/08/02 05:36:28;;;;;;;;;5.25;3.00;;;;;24.86;45.82;100651.06;4941252;28;45424;-92
2021/08/02 05:38:53;;;;;;;;;5.00;3.50;;;;;24.81;45.38;100641.47;4946506;28;45311;-91
2021/08/02 05:41:19;;;;;;;;;3.00;3.00;;;;;24.85;45.49;100644.88;4946092;28;45318;-83
2021/08/02 05:43:46;;;;;;;;;3.00;3.00;;;;;24.86;45.25;100643.06;4945721;28;46367;-81
2021/08/02 05:46:12;;;;;;;;;2.50;2.50;;;;;24.94;44.63;100655.06;4925958;28;45227;-82
2021/08/02 05:48:37;;;;;;;;;4.00;3.00;;;;;24.95;45.01;100650.59;4952419;28;49621;-87
2021/08/02 05:51:03;;;;;;;;;4.50;3.75;;;;;24.95;44.54;100656.81;4948128;28;45438;-89
2021/08/02 05:53:29;;;;;;;;;2.75;2.75;;;;;24.94;44.56;100665.75;4957950;28;47272;-88
2021/08/02 05:55:54;;;;;;;;;2.00;2.00;;;;;24.94;44.19;100656.88;4955850;28;45353;-86
2021/08/02 05:58:20;;;;;;;;;3.25;2.75;;;;;24.96;43.90;100660.34;4945955;28;45440;-90
2021/08/02 06:00:45;;;;;;;;;2.25;2.25;;;;;24.95;44.10;100663.94;4944439;28;45511;-89
2021/08/02 06:03:14;;;;;;;;;4.50;3.00;;;;;24.95;43.96;100666.63;4963037;28;63351;-90
2021/08/02 06:05:39;;;;;;;;;3.00;2.25;;;;;24.94;43.97;100670.22;4945884;28;45752;-89
2021/08/02 06:08:05;;;;;;;;;2.00;2.00;;;;;24.93;43.56;100665.81;4926432;28;45259;-90
2021/08/02 06:10:30;;;;;;;;;4.00;3.00;;;;;24.93;43.73;100669.34;4941395;28;58706;-88
2021/08/02 06:12:58;;;;;;;;;3.25;3.00;;;;;24.92;43.53;100667.63;4945254;28;48173;-89
2021/08/02 06:15:24;;;;;;;;;2.25;2.25;;;;;24.92;43.85;100667.63;4942242;28;45982;-85
2021/08/02 06:17:50;;;;;;;;;1.00;1.00;;;;;24.87;43.56;100667.00;4949361;28;45608;-85
2021/08/02 06:20:15;;;;;;;;;3.25;2.00;;;;;24.83;43.51;100652.06;4942281;28;45552;-90
2021/08/02 06:22:40;;;;;;;;;3.00;3.00;;;;;24.78;43.83;100663.00;4941934;28;57585;-91
2021/08/02 06:25:06;;;;;;;;;3.50;2.00;;;;;24.85;43.99;100668.00;4955927;28;54498;-89
2021/08/02 06:27:32;;;;;;;;;3.25;3.25;;;;;24.82;43.72;100663.69;4929474;28;45316;-90
2021/08/02 06:29:58;;;;;;;;;5.00;3.00;;;;;24.85;43.78;100676.00;4929125;28;45482;-84
2021/08/02 06:32:24;;;;;;;;;2.00;1.00;;;;;24.77;44.12;100653.28;4961732;28;45445;-90
2021/08/02 06:34:50;;;;;;;;;4.00;4.00;;;;;24.81;43.33;100660.16;4930161;28;45196;-88
2021/08/02 06:37:16;;;;;;;;;2.25;2.25;;;;;24.90;43.72;100677.53;4942899;28;45913;-85
2021/08/02 06:39:42;;;;;;;;;4.00;3.25;;;;;24.79;43.36;100655.84;4944751;28;45633;-89
2021/08/02 06:42:10;;;;;;;;;2.75;2.00;;;;;24.89;43.16;100672.25;4927932;28;45686;-88
2021/08/02 06:44:35;;;;;;;;;3.50;3.00;;;;;24.86;43.56;100667.09;4918102;28;45350;-88
2021/08/02 06:47:01;;;;;;;;;4.25;3.00;;;;;24.85;43.44;100670.69;4929535;28;45423;-87
2021/08/02 06:49:27;;;;;;;;;2.50;2.50;;;;;24.87;43.35;100676.81;4930011;28;45409;-87
2021/08/02 06:51:53;;;;;;;;;4.50;2.25;;;;;24.94;43.42;100688.94;4929466;28;47832;-84
2021/08/02 06:54:18;;;;;;;;;2.50;2.50;;;;;24.96;43.38;100685.22;4944783;28;45396;-89
2021/08/02 06:56:43;;;;;;;;;4.50;3.50;;;;;24.91;43.22;100673.03;4936853;28;45681;-84
2021/08/02 06:59:09;;;;;;;;;4.50;4.00;;;;;24.93;43.31;100682.69;4935251;28;45883;-87
2021/08/02 07:01:35;;;;;;;;;5.00;3.75;;;;;24.94;43.44;100673.75;4960209;28;45409;-80
2021/08/02 07:04:01;;;;;;;;;3.00;3.00;;;;;24.97;43.36;100678.94;4928814;28;45308;-80
2021/08/02 07:06:26;;;;;;;;;3.50;3.50;;;;;25.03;43.29;100691.16;4959411;28;54982;-81
2021/08/02 07:08:52;;;;;;;;;6.75;6.00;;;;;24.91;43.61;100673.03;4960706;28;45250;-80
2021/08/02 07:11:17;;;;;;;;;5.00;4.50;;;;;24.98;43.56;100685.13;4961659;28;45892;-78
2021/08/02 07:13:43;;;;;;;;;5.25;4.50;;;;;24.94;43.54;100694.25;4959599;28;59272;-80
2021/08/02 07:16:08;;;;;;;;;5.25;3.00;;;;;24.96;43.74;100693.22;4937911;28;45387;-80
2021/08/02 07:18:34;;;;;;;;;4.25;4.00;;;;;24.98;43.26;100687.81;4944391;28;45262;-78
2021/08/02 07:20:59;;;;;;;;;4.00;4.00;;;;;24.99;43.64;100692.19;4960829;28;45632;-79
2021/08/02 07:23:25;;;;;;;;;2.50;2.50;;;;;24.99;43.77;100694.88;4962021;28;45513;-79
2021/08/02 07:25:53;;;;;;;;;3.25;3.25;;;;;24.91;44.10;100692.59;4960378;28;45375;-77
2021/08/02 07:28:19;;;;;;;;;4.50;4.50;;;;;24.89;44.20;100696.28;4961395;28;45519;-80
2021/08/02 07:30:44;;;;;;;;;5.00;2.50;;;;;24.86;43.81;100697.31;4960106;28;48397;-79
2021/08/02 07:33:10;;;;;;;;;4.00;4.00;;;;;24.80;43.99;100690.47;4959829;28;45855;-82
2021/08/02 07:35:35;;;;;;;;;4.75;3.00;;;;;24.67;44.65;100680.47;4952250;28;45527;-81
2021/08/02 07:38:01;;;;;;;;;2.25;2.25;;;;;24.64;44.79;100678.84;4954771;28;61915;-80
2021/08/02 07:40:26;;;;;;;;;5.50;4.75;;;;;24.70;44.87;100689.22;4949425;28;58871;-78
2021/08/02 07:42:52;;;;;;;;;4.75;3.50;;;;;24.63;44.98;100685.13;4926652;28;46105;-81
2021/08/02 07:45:17;;;;;;;;;4.75;3.00;;;;;24.63;45.16;100693.13;4940955;28;45392;-81
2021/08/02 07:47:42;;;;;;;;;6.25;3.50;;;;;24.62;44.83;100693.22;4955481;28;48037;-80
2021/08/02 07:50:09;;;;;;;;;7.50;4.25;;;;;24.63;45.03;100698.47;4936307;28;45388;-79
2021/08/02 07:52:34;;;;;;;;;4.75;4.50;;;;;24.60;44.99;100692.44;4941694;28;45347;-79
2021/08/02 07:55:00;;;;;;;;;5.00;5.00;;;;;24.61;45.48;100703.03;4943996;28;45499;-78
2021/08/02 07:57:30;;;;;;;;;6.50;4.75;;;;;24.59;45.36;100701.38;4959057;28;45371;-81
2021/08/02 08:00:06;;;;;;;;;4.75;3.50;;;;;24.57;45.71;100700.56;4943761;28;45992;-81
2021/08/02 08:02:31;;;;;;;;;4.75;4.25;;;;;24.58;44.93;100700.47;4942954;28;45623;-82
2021/08/02 08:04:57;;;;;;;;;5.50;3.25;;;;;24.56;45.27;100698.84;4958846;28;45444;-82
2021/08/02 08:07:22;;;;;;;;;2.25;2.25;;;;;24.55;45.85;100700.66;4928861;28;45391;-82
2021/08/02 08:09:48;;;;;;;;;4.25;4.25;;;;;24.56;45.88;100693.50;4952035;28;49282;-83
2021/08/02 08:12:13;;;;;;;;;4.00;3.50;;;;;24.53;45.54;100697.19;4942968;28;45294;-82
2021/08/02 08:14:42;;;;;;;;;4.00;3.00;;;;;24.53;45.63;100695.38;4949727;28;45649;-82
2021/08/02 08:17:07;;;;;;;;;3.00;3.00;;;;;24.48;45.96;100685.88;4955603;28;52249;-81
2021/08/02 08:19:32;;;;;;;;;4.25;3.00;;;;;24.57;45.45;100696.09;4961015;28;45314;-80
2021/08/02 08:21:58;;;;;;;;;6.00;5.00;;;;;24.51;45.60;100691.06;4946274;28;45274;-82
2021/08/02 08:24:24;;;;;;;;;4.00;2.00;;;;;24.56;45.24;100691.69;4956325;28;45373;-82
2021/08/02 08:26:49;;;;;;;;;5.00;3.50;;;;;24.59;45.36;100701.38;4956339;28;45515;-82
2021/08/02 08:29:15;;;;;;;;;2.00;2.00;;;;;24.56;45.43;100691.69;4959380;28;45441;-82
2021/08/02 08:31:40;;;;;;;;;3.00;3.00;;;;;24.60;45.15;100695.09;4945064;28;64002;-81
2021/08/02 08:34:06;;;;;;;;;3.50;3.50;;;;;24.59;45.50;100699.56;4960592;28;45418;-80
2021/08/02 08:36:31;;;;;;;;;5.00;4.00;;;;;24.59;45.76;100691.56;4959548;28;45325;-80
2021/08/02 08:38:57;;;;;;;;;3.00;2.00;;;;;24.63;45.64;100689.59;4949655;28;45621;-80
2021/08/02 08:41:22;;;;;;;;;3.50;3.50;;;;;24.62;45.24;100683.41;4943416;28;45235;-82
2021/08/02 08:44:04;;;;;;;;;4.00;3.25;;;;;24.65;45.43;100685.91;4936508;28;45423;-82
2021/08/02 08:46:32;;;;;;;;;4.25;4.00;;;;;24.64;45.51;100685.97;4959359;28;45547;-81
2021/08/02 08:48:57;;;;;;;;;6.50;6.00;;;;;24.59;45.27;100674.69;4959390;28;45295;-82
2021/08/02 08:51:23;;;;;;;;;3.75;3.25;;;;;24.61;45.14;100684.34;4927322;28;45228;-81
2021/08/02 08:53:48;;;;;;;;;4.00;4.00;;;;;24.60;45.05;100679.94;4960804;28;45813;-80
2021/08/02 08:56:24;;;;;;;;;4.25;2.75;;;;;24.54;45.11;100674.91;4926801;28;45228;-80
2021/08/02 08:58:56;;;;;;;;;3.25;3.25;;;;;24.48;45.01;100662.72;4957774;28;46948;-87
2021/08/02 09:01:26;;;;;;;;;3.25;3.25;;;;;24.58;45.80;100679.13;4924941;28;45252;-87
2021/08/02 09:03:55;;;;;;;;;4.00;4.00;;;;;24.65;45.55;100680.56;4909802;28;45275;-85
2021/08/02 09:06:29;;;;;;;;;5.00;4.00;;;;;24.67;45.37;100681.38;4943866;28;45300;-85
2021/08/02 09:09:09;;;;;;;;;3.75;3.00;;;;;24.65;45.39;100680.56;4927778;28;48290;-85
2021/08/02 09:11:34;;;;;;;;;5.00;5.00;;;;;24.73;44.91;100694.38;4927360;28;45649;-78
2021/08/02 09:14:08;;;;;;;;;4.00;4.00;;;;;24.69;44.91;100681.28;4959359;28;51066;-84
2021/08/02 09:16:33;;;;;;;;;5.00;4.00;;;;;24.75;44.43;100687.16;4926466;28;45524;-85
2021/08/02 09:19:02;;;;;;;;;7.75;6.25;;;;;24.69;44.51;100687.50;4958819;28;46976;-89
2021/08/02 09:21:38;;;;;;;;;20.25;17.50;;;;;24.74;44.56;100693.44;4927832;28;45429;-83
2021/08/02 09:24:04;;;;;;;;;21.00;16.75;;;;;24.75;44.87;100687.16;4928352;28;45429;-84
2021/08/02 09:26:39;;;;;;;;;26.50;17.25;;;;;24.78;45.43;100687.03;4935183;28;56477;-83
2021/08/02 09:29:05;;;;;;;;;13.25;11.25;;;;;24.77;46.71;100679.97;4959188;28;45639;-81
2021/08/02 09:42:39;;;;;;;;;7.00;4.00;;;;;24.89;44.26;100693.63;4863480;29;46527;-84
2021/08/02 09:45:07;;;;;;;;;6.25;5.00;;;;;24.82;44.29;100655.69;4879645;28;45640;-84
2021/08/02 09:47:33;;;;;;;;;3.00;3.00;;;;;24.87;44.13;100664.34;4945146;28;45339;-86
2021/08/02 09:50:31;;;;;;;;;11.75;9.00;;;;;25.01;44.22;100679.63;4943598;28;45569;-87
2021/08/02 09:52:57;;;;;;;;;16.50;13.25;;;;;24.98;45.47;100671.78;4920240;28;48282;-86
2021/08/02 09:55:23;;;;;;;;;23.50;20.25;;;;;25.10;45.66;100679.19;4945611;28;45278;-86
2021/08/02 09:57:51;;;;;;;;;10.00;9.25;;;;;25.11;45.47;100674.72;4970545;28;45218;-81
2021/08/02 10:00:17;;;;;;;;;7.50;5.50;;;;;25.13;44.33;100679.03;4944786;28;45568;-83
2021/08/02 10:02:43;;;;;;;;;6.00;4.75;;;;;25.09;43.70;100674.78;4951348;28;48473;-83
2021/08/02 10:05:09;;;;;;;;;4.50;4.50;;;;;24.97;43.72;100664.72;4975544;28;45797;-84
2021/08/02 10:07:35;;;;;;;;;3.00;3.00;;;;;24.94;43.33;100659.56;4961222;28;45335;-83
2021/08/02 10:10:01;;;;;;;;;5.00;2.75;;;;;24.94;43.00;100673.75;4950952;28;45353;-83
2021/08/02 10:12:26;;;;;;;;;5.00;3.00;;;;;24.80;42.98;100647.75;4928871;28;47678;-83
2021/08/02 10:14:55;;;;;;;;;3.00;2.50;;;;;24.78;43.52;100667.47;4960872;28;54283;-86
2021/08/02 10:17:20;;;;;;;;;3.25;3.00;;;;;24.86;43.13;100672.44;4926766;28;45540;-86
2021/08/02 10:19:53;;;;;;;;;3.00;2.75;;;;;24.84;43.10;100666.28;4954656;28;45544;-88
2021/08/02 10:22:19;;;;;;;;;4.00;3.25;;;;;24.90;43.23;100665.97;4933121;28;46696;-88
2021/08/02 10:24:49;;;;;;;;;2.00;2.00;;;;;24.81;42.48;100654.81;4926137;28;45794;-85
2021/08/02 10:27:27;;;;;;;;;3.00;3.00;;;;;24.86;42.56;100661.75;4962610;28;45427;-83
2021/08/02 10:29:52;;;;;;;;;2.00;2.00;;;;;24.93;43.24;100668.47;4943715;28;45307;-86
2021/08/02 10:32:26;;;;;;;;;4.00;4.00;;;;;24.96;43.97;100671.00;4961220;28;45259;-78
2021/08/02 10:34:51;;;;;;;;;4.00;3.00;;;;;25.05;44.79;100686.59;4960822;28;45190;-80
2021/08/02 10:37:41;;;;;;;;;2.50;2.50;;;;;25.09;45.03;100683.66;4929166;28;45204;-79
2021/08/02 10:40:10;;;;;;;;;2.00;2.00;;;;;25.12;44.31;100674.66;4945131;28;45874;-78
2021/08/02 10:42:48;;;;;;;;;2.75;2.00;;;;;25.05;43.73;100673.25;4944659;28;46120;-76
2021/08/02 10:45:13;;;;;;;;;2.00;2.00;;;;;25.04;44.23;100666.19;4941899;28;45277;-87
2021/08/02 10:47:42;;;;;;;;;2.50;2.50;;;;;25.14;43.16;100672.75;4956155;28;45492;-84
2021/08/02 10:50:11;;;;;;;;;2.00;2.00;;;;;25.19;43.14;100665.34;4940858;28;45475;-85
2021/08/02 10:52:36;;;;;;;;;4.25;3.25;;;;;25.21;43.54;100667.97;4956699;28;45295;-85
2021/08/02 10:55:17;;;;;;;;;5.00;4.00;;;;;25.24;43.31;100665.97;4929320;28;45579;-85
2021/08/02 10:57:42;;;;;;;;;6.00;3.25;;;;;25.28;42.91;100667.56;4944718;28;45344;-81
2021/08/02 11:00:19;;;;;;;;;5.00;3.50;;;;;25.23;42.62;100647.38;4945312;28;45429;-88
2021/08/02 11:02:52;;;;;;;;;4.50;4.50;;;;;25.25;42.38;100653.50;4921863;28;47993;-85
2021/08/02 11:05:19;;;;;;;;;5.00;4.00;;;;;25.34;42.19;100664.53;4925942;28;45482;-86
2021/08/02 11:07:45;;;;;;;;;3.75;2.50;;;;;25.31;42.33;100650.50;4925078;28;46601;-85
2021/08/02 11:10:11;;;;;;;;;2.75;2.75;;;;;25.37;42.00;100658.19;4944300;28;45498;-88
2021/08/02 11:12:49;;;;;;;;;4.75;3.25;;;;;25.40;42.15;100657.16;4941120;28;45297;-86
2021/08/02 11:15:15;;;;;;;;;4.00;2.75;;;;;25.38;41.68;100657.25;4960038;28;45373;-87
2021/08/02 11:17:41;;;;;;;;;3.50;3.50;;;;;25.40;41.74;100652.69;4927250;28;45584;-87
2021/08/02 11:20:10;;;;;;;;;5.75;4.00;;;;;25.46;41.51;100659.50;4946973;28;45500;-89
2021/08/02 11:22:56;;;;;;;;;3.00;3.00;;;;;25.42;41.93;100647.25;4928817;28;48298;-88
2021/08/02 11:25:23;;;;;;;;;4.75;3.75;;;;;25.50;41.91;100659.25;4915946;28;45272;-85
2021/08/02 11:28:02;;;;;;;;;3.50;3.50;;;;;25.50;41.68;100661.91;4952818;28;45381;-85
2021/08/02 11:30:28;;;;;;;;;3.75;3.75;;;;;25.43;41.87;100640.94;4916151;28;45891;-86
2021/08/02 11:32:53;;;;;;;;;3.50;3.50;;;;;25.53;41.47;100655.53;4951999;28;45388;-84
2021/08/02 11:35:22;;;;;;;;;3.00;3.00;;;;;25.46;41.33;100643.47;4933219;28;45826;-88
2021/08/02 11:37:50;;;;;;;;;4.00;4.00;;;;;25.51;41.67;100652.94;4966527;28;45518;-85